Time;durP1;ratioP1;P1;durP2;ratioP2;P2;SDS_P1;SDS_P2;PMS_P1;PMS_P2;Temp;Humidity;BMP_temperature;BMP_pressure;BME280_temperature;BME280_humidity;BME280_pressure;Samples;Min_cycle;Max_cycle;Signal;HPM_P1;HPM_P2
2023/06/29 00:00:06;;;;;;;4.13;3.10;;;;;;;18.86;66.46;99538.63;337464;28;4518;-68
2023/06/29 00:00:20;;;;;;;4.18;3.15;;;;;;;18.85;66.51;99534.28;335934;28;17600;-68
2023/06/29 00:00:34;;;;;;;4.93;3.40;;;;;;;18.86;66.57;99535.97;335938;28;17592;-67
2023/06/29 00:00:46;;;;;;;5.35;3.40;;;;;;;18.88;66.15;99534.09;335679;28;17141;-68
2023/06/29 00:00:59;;;;;;;5.03;3.10;;;;;;;18.89;65.90;99535.75;337049;28;5564;-68
2023/06/29 00:01:11;;;;;;;6.32;3.10;;;;;;;18.90;65.79;99535.66;336022;28;18267;-67
2023/06/29 00:01:23;;;;;;;6.35;3.00;;;;;;;18.89;65.80;99530.47;338665;28;4500;-68
2023/06/29 00:01:35;;;;;;;6.90;3.35;;;;;;;18.91;65.75;99533.84;336181;28;11788;-67
2023/06/29 00:01:47;;;;;;;8.07;3.58;;;;;;;18.91;65.83;99536.47;338576;28;4587;-68
2023/06/29 00:01:59;;;;;;;8.23;3.47;;;;;;;18.92;65.91;99535.56;338908;28;5448;-67
2023/06/29 00:02:11;;;;;;;6.25;3.03;;;;;;;18.93;65.78;99539.84;335705;28;11581;-67
2023/06/29 00:02:26;;;;;;;6.22;3.08;;;;;;;18.93;66.01;99542.50;337949;28;7480;-67
2023/06/29 00:02:39;;;;;;;5.25;3.03;;;;;;;18.94;65.82;99541.56;336065;28;17896;-67
2023/06/29 00:02:52;;;;;;;6.00;2.92;;;;;;;18.94;65.62;99538.91;334817;28;17621;-67
2023/06/29 00:03:05;;;;;;;6.68;3.10;;;;;;;18.93;65.66;99531.94;336244;28;4952;-67
2023/06/29 00:03:17;;;;;;;4.80;3.33;;;;;;;18.93;65.79;99531.94;338188;28;17046;-68
2023/06/29 00:03:31;;;;;;;5.20;3.42;;;;;;;18.92;65.76;99546.09;338618;28;4496;-67
2023/06/29 00:03:43;;;;;;;6.43;3.20;;;;;;;18.92;65.60;99535.56;336132;28;17988;-67
2023/06/29 00:03:56;;;;;;;5.38;3.00;;;;;;;18.92;65.56;99540.81;336317;28;18010;-68
2023/06/29 00:04:08;;;;;;;4.72;3.03;;;;;;;18.91;65.88;99539.97;337887;28;5221;-68
2023/06/29 00:04:21;;;;;;;4.47;3.05;;;;;;;18.92;65.75;99540.81;335785;28;11326;-67
2023/06/29 00:04:34;;;;;;;5.80;3.20;;;;;;;18.92;65.52;99535.56;337684;28;4524;-68
2023/06/29 00:04:46;;;;;;;5.38;3.17;;;;;;;18.92;65.42;99536.38;335512;28;18946;-68
2023/06/29 00:04:58;;;;;;;4.85;3.40;;;;;;;18.92;65.77;99538.19;338333;28;4732;-68
2023/06/29 00:05:11;;;;;;;3.97;3.28;;;;;;;18.94;65.49;99538.91;335766;28;17508;-67
2023/06/29 00:05:23;;;;;;;3.53;3.17;;;;;;;18.94;65.49;99538.91;338623;28;4771;-67
2023/06/29 00:05:35;;;;;;;3.78;3.00;;;;;;;18.95;65.52;99537.97;337525;28;4621;-67
2023/06/29 00:05:47;;;;;;;4.83;3.07;;;;;;;18.95;65.30;99538.81;337104;28;17509;-67
2023/06/29 00:06:01;;;;;;;5.55;3.30;;;;;;;18.93;65.74;99537.22;338028;28;4500;-67
2023/06/29 00:06:13;;;;;;;5.43;3.40;;;;;;;18.92;65.69;99532.91;336125;28;17744;-67
2023/06/29 00:06:26;;;;;;;4.65;3.17;;;;;;;18.91;65.24;99534.72;336188;28;18205;-67
2023/06/29 00:06:38;;;;;;;3.90;3.10;;;;;;;18.90;64.99;99534.81;338824;28;4791;-68
2023/06/29 00:06:50;;;;;;;4.03;3.13;;;;;;;18.90;64.99;99537.44;337028;28;4562;-67
2023/06/29 00:07:02;;;;;;;4.35;3.20;;;;;;;18.91;64.87;99539.13;338164;28;17377;-67
2023/06/29 00:07:15;;;;;;;5.13;3.20;;;;;;;18.91;65.04;99539.97;337683;28;4586;-67
2023/06/29 00:07:27;;;;;;;4.47;3.13;;;;;;;18.90;65.13;99537.44;336059;28;18273;-68
2023/06/29 00:07:40;;;;;;;4.25;3.20;;;;;;;18.92;64.92;99544.28;338860;28;4622;-67
2023/06/29 00:07:52;;;;;;;3.65;3.08;;;;;;;18.93;65.02;99531.94;336254;28;18179;-67
2023/06/29 00:08:04;;;;;;;4.05;3.00;;;;;;;18.92;65.11;99540.81;338662;28;4523;-67
2023/06/29 00:08:16;;;;;;;6.35;3.08;;;;;;;18.92;64.90;99543.44;335841;28;11870;-67
2023/06/29 00:08:35;;;;;;;6.95;3.20;;;;;;;18.94;65.03;99537.13;337526;28;5451;-67
2023/06/29 00:08:47;;;;;;;4.40;3.05;;;;;;;18.95;64.70;99538.81;335958;28;17716;-67
2023/06/29 00:09:00;;;;;;;4.05;2.97;;;;;;;18.96;64.77;99540.50;334293;28;8157;-67
2023/06/29 00:09:12;;;;;;;4.75;3.00;;;;;;;18.95;64.87;99537.97;337864;28;5295;-68
2023/06/29 00:09:24;;;;;;;5.53;3.00;;;;;;;18.96;64.92;99539.66;338497;28;5973;-67
2023/06/29 00:09:36;;;;;;;4.82;3.10;;;;;;;18.93;65.26;99538.09;334964;28;18364;-67
2023/06/29 00:09:48;;;;;;;5.43;3.05;;;;;;;18.94;65.16;99541.56;338507;28;4522;-67
2023/06/29 00:10:01;;;;;;;7.20;3.17;;;;;;;18.92;65.11;99540.81;335269;28;12594;-68
2023/06/29 00:10:13;;;;;;;7.28;3.15;;;;;;;18.93;64.88;99542.50;338140;28;4656;-68
2023/06/29 00:10:26;;;;;;;5.38;3.03;;;;;;;18.91;64.97;99539.13;334793;28;16254;-68
2023/06/29 00:10:39;;;;;;;4.93;2.90;;;;;;;18.94;64.84;99537.13;337544;28;5417;-67
2023/06/29 00:10:56;;;;;;;4.85;3.00;;;;;;;18.96;64.59;99542.28;335352;28;18099;-68
2023/06/29 00:11:08;;;;;;;4.60;3.15;;;;;;;18.97;64.39;99543.97;335967;28;17789;-67
2023/06/29 00:11:22;;;;;;;4.55;3.10;;;;;;;18.98;64.43;99540.41;336055;28;11512;-68
2023/06/29 00:11:34;;;;;;;5.17;3.00;;;;;;;18.97;64.63;99538.69;337622;28;4505;-67
2023/06/29 00:11:46;;;;;;;5.05;3.13;;;;;;;18.94;64.77;99544.19;336258;28;5202;-67
2023/06/29 00:11:58;;;;;;;5.90;3.15;;;;;;;18.93;64.66;99542.50;338961;28;5359;-67
2023/06/29 00:12:10;;;;;;;5.05;3.08;;;;;;;18.90;64.79;99538.28;335561;28;4641;-67
2023/06/29 00:12:22;;;;;;;5.30;3.10;;;;;;;18.91;64.64;99531.22;338594;28;4591;-68
2023/06/29 00:12:34;;;;;;;4.68;3.03;;;;;;;18.90;64.63;99538.28;338176;28;4550;-68
2023/06/29 00:12:46;;;;;;;3.97;3.00;;;;;;;18.92;64.27;99539.03;335324;28;4565;-68
2023/06/29 00:12:58;;;;;;;3.65;3.00;;;;;;;18.93;64.40;99542.50;338419;28;4483;-68
2023/06/29 00:13:10;;;;;;;4.20;3.05;;;;;;;18.95;64.23;99535.31;336356;28;5560;-67
2023/06/29 00:13:24;;;;;;;3.80;3.10;;;;;;;18.96;64.28;99542.28;337679;28;18353;-67
2023/06/29 00:13:36;;;;;;;4.07;3.20;;;;;;;18.95;64.34;99538.81;334887;28;17812;-67
2023/06/29 00:13:48;;;;;;;4.03;3.28;;;;;;;18.95;64.76;99536.19;337523;28;4627;-68
2023/06/29 00:14:00;;;;;;;3.33;3.00;;;;;;;18.95;64.80;99536.19;338640;28;4506;-67
2023/06/29 00:14:12;;;;;;;3.30;2.97;;;;;;;18.98;64.59;99543.03;336159;28;18036;-68
2023/06/29 00:14:23;;;;;;;3.30;2.90;;;;;;;18.98;64.81;99529.84;338076;28;5282;-67
2023/06/29 00:14:35;;;;;;;3.80;3.00;;;;;;;18.98;64.61;99535.13;335356;28;19473;-68
2023/06/29 00:14:47;;;;;;;3.63;3.00;;;;;;;18.98;64.64;99545.66;339475;28;4532;-67
2023/06/29 00:14:59;;;;;;;3.90;3.00;;;;;;;18.99;65.01;99536.78;339118;28;4737;-67
2023/06/29 00:15:11;;;;;;;4.28;2.92;;;;;;;19.00;64.58;99543.75;335912;28;18112;-67
2023/06/29 00:15:23;;;;;;;4.53;3.17;;;;;;;18.99;64.26;99531.53;339101;28;4546;-68
2023/06/29 00:15:35;;;;;;;3.78;3.05;;;;;;;18.99;64.32;99534.16;335540;28;15934;-67
2023/06/29 00:15:48;;;;;;;4.88;2.92;;;;;;;19.00;64.65;99537.66;338425;28;4589;-68
2023/06/29 00:16:01;;;;;;;5.45;2.90;;;;;;;18.99;64.61;99536.78;335863;28;18165;-67
2023/06/29 00:16:13;;;;;;;6.55;3.10;;;;;;;18.99;64.65;99536.78;338168;28;5385;-67
2023/06/29 00:16:25;;;;;;;5.80;3.20;;;;;;;18.99;64.88;99531.53;335858;28;10783;-67
2023/06/29 00:16:37;;;;;;;5.75;3.20;;;;;;;18.98;64.74;99537.75;339147;28;5175;-67
2023/06/29 00:16:50;;;;;;;5.03;3.22;;;;;;;18.95;64.80;99530.06;338875;28;4513;-67
2023/06/29 00:17:02;;;;;;;3.97;3.08;;;;;;;18.96;64.67;99531.75;335462;28;18484;-67
2023/06/29 00:17:14;;;;;;;3.55;3.03;;;;;;;18.95;64.90;99536.19;338273;28;5390;-67
2023/06/29 00:17:27;;;;;;;4.25;3.20;;;;;;;18.94;64.90;99533.66;335649;28;18029;-67
2023/06/29 00:17:39;;;;;;;4.38;3.38;;;;;;;18.94;64.69;99533.66;337728;28;5414;-68
2023/06/29 00:17:51;;;;;;;5.07;3.22;;;;;;;18.92;64.78;99536.38;336131;28;18364;-67
2023/06/29 00:18:03;;;;;;;5.82;3.28;;;;;;;18.92;64.90;99532.91;338591;28;4513;-67
2023/06/29 00:18:16;;;;;;;6.50;3.10;;;;;;;18.91;64.91;99528.59;335704;28;18254;-67
2023/06/29 00:18:28;;;;;;;5.85;3.20;;;;;;;18.91;65.01;99536.47;338586;28;4533;-67
2023/06/29 00:18:40;;;;;;;5.43;3.20;;;;;;;18.90;64.69;99532.19;336581;28;4591;-67
2023/06/29 00:18:54;;;;;;;3.63;3.08;;;;;;;18.91;64.66;99533.84;338929;28;5651;-67
2023/06/29 00:19:07;;;;;;;3.45;3.00;;;;;;;18.91;64.80;99531.22;335921;28;19345;-68
2023/06/29 00:19:20;;;;;;;3.88;3.08;;;;;;;18.92;64.72;99535.56;337892;28;4678;-68
2023/06/29 00:19:33;;;;;;;4.37;3.20;;;;;;;18.89;64.79;99533.13;334561;28;18137;-67
2023/06/29 00:19:49;;;;;;;6.03;3.03;;;;;;;18.90;64.71;99530.38;336218;28;4731;-68
2023/06/29 00:20:02;;;;;;;7.20;3.00;;;;;;;18.93;64.50;99532.81;336070;28;19263;-67
2023/06/29 00:20:14;;;;;;;5.38;3.13;;;;;;;18.95;64.47;99532.69;337618;28;4687;-67
2023/06/29 00:20:28;;;;;;;4.25;3.25;;;;;;;18.96;64.31;99531.75;336003;28;6269;-68
2023/06/29 00:20:42;;;;;;;4.05;3.20;;;;;;;18.96;64.29;99529.97;335530;28;11445;-67
2023/06/29 00:20:54;;;;;;;3.45;2.85;;;;;;;18.96;64.11;99526.50;339261;28;4516;-67
2023/06/29 00:21:06;;;;;;;4.18;2.85;;;;;;;18.95;64.28;99535.31;335456;28;18234;-68
2023/06/29 00:21:18;;;;;;;4.40;3.00;;;;;;;18.95;64.01;99530.06;338558;28;5394;-67
2023/06/29 00:21:33;;;;;;;3.72;2.88;;;;;;;18.95;63.91;99530.06;335094;28;18030;-68
2023/06/29 00:21:47;;;;;;;3.70;3.00;;;;;;;18.94;63.51;99526.59;335350;28;12266;-68
2023/06/29 00:21:59;;;;;;;4.93;3.05;;;;;;;18.94;63.69;99538.91;338894;28;4603;-67
2023/06/29 00:22:13;;;;;;;5.57;2.90;;;;;;;18.96;63.53;99529.13;334930;28;18223;-67
2023/06/29 00:22:25;;;;;;;6.20;3.15;;;;;;;18.95;63.38;99524.78;336676;28;4731;-67
2023/06/29 00:22:39;;;;;;;5.10;3.20;;;;;;;18.92;63.36;99528.47;336115;28;18531;-68
2023/06/29 00:22:51;;;;;;;4.25;3.13;;;;;;;18.92;63.34;99541.66;334702;28;17910;-67
2023/06/29 00:23:03;;;;;;;5.10;3.20;;;;;;;18.92;63.49;99536.38;338138;28;4640;-67
2023/06/29 00:23:16;;;;;;;4.82;3.30;;;;;;;18.86;63.41;99533.34;336342;28;18331;-67
2023/06/29 00:23:28;;;;;;;5.05;3.38;;;;;;;18.79;63.58;99530.25;338938;28;4650;-67
2023/06/29 00:23:39;;;;;;;4.47;3.50;;;;;;;18.82;63.63;99534.50;338917;28;4506;-67
2023/06/29 00:23:53;;;;;;;4.70;3.45;;;;;;;18.82;63.93;99530.06;335980;28;17941;-67
2023/06/29 00:24:05;;;;;;;4.32;3.35;;;;;;;18.84;63.86;99529.97;336953;28;4765;-67
2023/06/29 00:24:17;;;;;;;3.42;3.10;;;;;;;18.85;63.81;99529.00;337118;28;16652;-67
2023/06/29 00:24:29;;;;;;;4.45;3.17;;;;;;;18.85;63.91;99534.28;338019;28;4720;-67
2023/06/29 00:24:44;;;;;;;7.07;3.38;;;;;;;18.86;64.24;99528.91;335512;28;18218;-68
2023/06/29 00:24:58;;;;;;;7.13;3.33;;;;;;;18.88;63.96;99529.66;335975;28;17839;-68
2023/06/29 00:25:10;;;;;;;4.10;3.10;;;;;;;18.90;63.86;99534.81;336744;28;11595;-67
2023/06/29 00:25:22;;;;;;;4.00;3.13;;;;;;;18.89;63.97;99531.31;335488;28;18390;-67
2023/06/29 00:25:35;;;;;;;5.20;3.10;;;;;;;18.91;64.14;99528.59;338870;28;5310;-67
2023/06/29 00:25:47;;;;;;;6.15;3.17;;;;;;;18.90;64.01;99532.19;335846;28;18085;-67
2023/06/29 00:26:01;;;;;;;6.38;3.20;;;;;;;18.90;63.97;99525.13;338647;28;4460;-67
2023/06/29 00:26:16;;;;;;;4.55;3.20;;;;;;;18.90;64.18;99526.91;335394;28;17834;-67
2023/06/29 00:26:28;;;;;;;4.22;3.22;;;;;;;18.88;64.29;99534.09;335382;28;18033;-67
2023/06/29 00:26:41;;;;;;;4.53;3.40;;;;;;;18.89;64.25;99530.47;335521;28;17437;-67
2023/06/29 00:26:53;;;;;;;4.22;3.38;;;;;;;18.85;64.48;99532.47;338921;28;5524;-67
2023/06/29 00:27:05;;;;;;;3.72;3.33;;;;;;;18.87;64.21;99533.22;338123;28;4693;-67
2023/06/29 00:27:17;;;;;;;3.38;3.08;;;;;;;18.88;64.05;99528.81;335801;28;18820;-68
2023/06/29 00:27:29;;;;;;;4.32;3.17;;;;;;;18.89;64.07;99530.47;338151;28;4730;-67
2023/06/29 00:27:41;;;;;;;4.38;3.05;;;;;;;18.90;63.94;99532.19;336067;28;18039;-67
2023/06/29 00:27:53;;;;;;;4.43;3.05;;;;;;;18.90;63.89;99524.28;339123;28;4613;-67
2023/06/29 00:28:05;;;;;;;4.38;2.95;;;;;;;18.90;63.92;99529.53;335373;28;11729;-67
2023/06/29 00:28:18;;;;;;;6.28;3.00;;;;;;;18.90;63.86;99527.75;337802;28;4559;-68
2023/06/29 00:28:30;;;;;;;8.43;3.20;;;;;;;18.90;63.82;99534.81;338642;28;4765;-67
2023/06/29 00:28:41;;;;;;;6.95;3.20;;;;;;;18.90;63.90;99529.53;336072;28;18252;-67
2023/06/29 00:28:53;;;;;;;6.30;3.28;;;;;;;18.89;63.82;99523.41;338829;28;5287;-67
2023/06/29 00:29:05;;;;;;;4.35;3.28;;;;;;;18.90;63.70;99529.53;335275;28;11417;-67
2023/06/29 00:29:17;;;;;;;4.63;3.22;;;;;;;18.89;63.80;99530.47;338779;28;4613;-67
2023/06/29 00:29:29;;;;;;;4.95;3.20;;;;;;;18.88;63.93;99527.00;338956;28;4715;-67
2023/06/29 00:29:42;;;;;;;4.60;3.30;;;;;;;18.89;63.82;99525.22;335804;28;18046;-67
2023/06/29 00:29:54;;;;;;;4.00;3.30;;;;;;;18.89;63.77;99525.22;339026;28;4671;-67
2023/06/29 00:30:07;;;;;;;4.22;3.25;;;;;;;18.89;64.12;99530.47;334711;28;18100;-67
2023/06/29 00:30:19;;;;;;;5.97;3.20;;;;;;;18.88;64.13;99529.66;338044;28;5007;-67
2023/06/29 00:30:31;;;;;;;6.28;3.30;;;;;;;18.88;64.03;99529.66;335053;28;19144;-68
2023/06/29 00:30:43;;;;;;;5.95;3.30;;;;;;;18.89;63.95;99526.06;338774;28;5480;-67
2023/06/29 00:30:56;;;;;;;4.85;3.47;;;;;;;18.88;64.07;99527.00;334316;28;13343;-68
2023/06/29 00:31:08;;;;;;;4.45;3.28;;;;;;;18.89;63.98;99525.22;337962;28;5716;-67
2023/06/29 00:31:23;;;;;;;4.70;3.30;;;;;;;18.89;63.97;99525.22;335996;28;11214;-67
2023/06/29 00:31:35;;;;;;;4.18;3.40;;;;;;;18.90;63.86;99532.19;335885;28;4742;-68
2023/06/29 00:31:47;;;;;;;5.55;3.35;;;;;;;18.90;63.93;99519.00;336950;28;17150;-67
2023/06/29 00:31:59;;;;;;;5.65;3.30;;;;;;;18.90;63.93;99516.38;337268;28;5331;-68
2023/06/29 00:32:12;;;;;;;4.28;3.20;;;;;;;18.90;64.35;99522.47;335006;28;18070;-67
2023/06/29 00:32:24;;;;;;;4.30;3.20;;;;;;;18.89;64.27;99520.78;338961;28;4648;-67
2023/06/29 00:32:36;;;;;;;4.65;3.25;;;;;;;18.89;64.31;99527.84;336308;28;18060;-67
2023/06/29 00:32:48;;;;;;;4.70;3.35;;;;;;;18.89;64.25;99525.22;337595;28;5283;-67
2023/06/29 00:33:01;;;;;;;4.90;3.40;;;;;;;18.88;64.19;99523.53;334929;28;15960;-67
2023/06/29 00:33:13;;;;;;;5.00;3.30;;;;;;;18.86;64.24;99525.44;338745;28;5832;-67
2023/06/29 00:33:25;;;;;;;4.90;3.25;;;;;;;18.87;64.19;99521.84;338850;28;4596;-67
2023/06/29 00:33:37;;;;;;;5.13;3.22;;;;;;;18.87;64.11;99520.03;336294;28;18086;-68
2023/06/29 00:33:49;;;;;;;5.57;3.30;;;;;;;18.87;64.30;99520.03;338680;28;4749;-67
2023/06/29 00:34:00;;;;;;;4.95;3.20;;;;;;;18.88;64.12;99515.66;336376;28;11199;-68
2023/06/29 00:34:12;;;;;;;4.13;3.10;;;;;;;18.86;64.58;99517.53;338340;28;5809;-67
2023/06/29 00:34:24;;;;;;;4.90;3.00;;;;;;;18.86;64.52;99520.19;337975;28;5809;-68
2023/06/29 00:34:37;;;;;;;4.82;3.00;;;;;;;18.83;64.34;99520.38;336191;28;17520;-67
2023/06/29 00:34:49;;;;;;;5.30;3.20;;;;;;;18.83;64.64;99520.38;338687;28;4643;-67
2023/06/29 00:35:01;;;;;;;4.75;3.22;;;;;;;18.82;64.66;99519.53;335580;28;16314;-68
2023/06/29 00:35:13;;;;;;;4.10;3.00;;;;;;;18.84;64.45;99519.44;337364;28;5356;-67
2023/06/29 00:35:25;;;;;;;5.18;3.10;;;;;;;18.82;64.65;99516.06;338529;28;4675;-67
2023/06/29 00:35:37;;;;;;;5.60;3.05;;;;;;;18.82;64.60;99518.69;336209;28;18169;-67
2023/06/29 00:35:49;;;;;;;5.05;3.10;;;;;;;18.83;64.46;99520.38;339008;28;5637;-67
2023/06/29 00:36:01;;;;;;;4.25;3.15;;;;;;;18.81;64.30;99515.19;335914;28;16510;-68
2023/06/29 00:36:13;;;;;;;4.43;3.30;;;;;;;18.82;64.64;99514.28;337644;28;5085;-67
2023/06/29 00:36:25;;;;;;;4.22;3.30;;;;;;;18.81;64.76;99512.56;337675;28;4543;-67
2023/06/29 00:36:37;;;;;;;3.60;3.08;;;;;;;18.83;64.63;99520.38;336233;28;19070;-67
2023/06/29 00:36:49;;;;;;;6.18;3.20;;;;;;;18.80;64.86;99515.34;338825;28;4807;-67
2023/06/29 00:37:01;;;;;;;7.05;3.30;;;;;;;18.80;64.70;99520.59;336132;28;16836;-67
2023/06/29 00:37:13;;;;;;;6.90;3.17;;;;;;;18.77;65.29;99517.19;338322;28;4603;-67
2023/06/29 00:37:25;;;;;;;5.60;3.10;;;;;;;18.79;64.94;99516.22;338305;28;4574;-68
2023/06/29 00:37:37;;;;;;;5.38;3.10;;;;;;;18.77;65.04;99522.47;337128;28;18623;-67
2023/06/29 00:37:49;;;;;;;5.60;3.13;;;;;;;18.79;65.08;99518.88;339737;28;5297;-67
2023/06/29 00:38:01;;;;;;;5.40;3.20;;;;;;;18.79;64.43;99516.22;335862;28;16659;-67
2023/06/29 00:38:13;;;;;;;5.35;3.30;;;;;;;18.80;64.44;99510.06;337389;28;4530;-67
2023/06/29 00:38:25;;;;;;;5.50;3.40;;;;;;;18.81;64.42;99517.00;337158;28;5474;-68
2023/06/29 00:38:37;;;;;;;4.18;3.15;;;;;;;18.81;64.30;99515.19;334510;28;18106;-67
2023/06/29 00:38:49;;;;;;;3.13;2.83;;;;;;;18.81;64.22;99511.72;337471;28;4682;-67
2023/06/29 00:39:01;;;;;;;3.33;3.00;;;;;;;18.80;64.48;99515.34;334642;28;12899;-67
2023/06/29 00:39:13;;;;;;;4.07;3.20;;;;;;;18.77;65.04;99514.56;337330;28;4514;-67
2023/06/29 00:39:25;;;;;;;4.07;3.28;;;;;;;18.76;64.96;99520.75;337240;28;4676;-68
2023/06/29 00:39:37;;;;;;;4.50;3.10;;;;;;;18.77;64.77;99517.19;334634;28;17875;-67
2023/06/29 00:39:49;;;;;;;4.85;3.20;;;;;;;18.80;64.68;99518.81;338632;28;5002;-68
2023/06/29 00:40:03;;;;;;;5.10;3.10;;;;;;;18.81;64.38;99517.84;335936;28;10983;-68
2023/06/29 00:40:14;;;;;;;4.82;3.22;;;;;;;18.81;64.29;99517.00;337940;28;5529;-68
2023/06/29 00:40:27;;;;;;;5.03;3.20;;;;;;;18.80;64.71;99517.97;335617;28;18028;-67
2023/06/29 00:40:39;;;;;;;5.65;3.20;;;;;;;18.79;64.92;99516.22;338042;28;6162;-67
2023/06/29 00:40:51;;;;;;;4.78;3.10;;;;;;;18.78;64.76;99512.75;335808;28;18018;-68
2023/06/29 00:41:03;;;;;;;4.45;3.10;;;;;;;18.76;65.10;99520.75;338524;28;4495;-67
2023/06/29 00:41:15;;;;;;;5.25;3.13;;;;;;;18.75;64.68;99519.09;337854;28;4537;-67
2023/06/29 00:41:27;;;;;;;5.45;3.10;;;;;;;18.77;64.66;99517.19;335680;28;18129;-67
2023/06/29 00:41:39;;;;;;;5.38;3.00;;;;;;;18.77;64.72;99517.19;336854;28;5227;-67
2023/06/29 00:41:53;;;;;;;4.43;3.10;;;;;;;18.79;64.68;99524.13;334935;28;18222;-67
2023/06/29 00:42:05;;;;;;;4.75;3.35;;;;;;;18.79;64.59;99516.22;339048;28;5257;-67
2023/06/29 00:42:17;;;;;;;4.95;3.50;;;;;;;18.79;64.48;99513.59;334154;28;19196;-67
2023/06/29 00:42:29;;;;;;;4.47;3.40;;;;;;;18.79;64.80;99516.22;336802;28;4585;-68
2023/06/29 00:42:41;;;;;;;3.50;3.20;;;;;;;18.77;64.81;99511.94;333825;28;18849;-67
2023/06/29 00:42:55;;;;;;;4.00;3.20;;;;;;;18.78;64.87;99518.03;337426;28;5233;-67
2023/06/29 00:43:08;;;;;;;3.85;3.00;;;;;;;18.75;64.73;99516.47;334360;28;16535;-68
2023/06/29 00:43:20;;;;;;;4.70;3.20;;;;;;;18.73;65.17;99526.25;336091;29;5523;-68
2023/06/29 00:43:32;;;;;;;5.28;3.28;;;;;;;18.71;65.52;99519.38;333408;28;18183;-68
2023/06/29 00:43:45;;;;;;;5.00;3.22;;;;;;;18.70;65.21;99515.09;337465;28;4534;-68
2023/06/29 00:43:57;;;;;;;4.45;3.20;;;;;;;18.67;65.46;99516.16;335644;28;18206;-68
2023/06/29 00:44:09;;;;;;;3.90;3.40;;;;;;;18.67;65.49;99524.03;337766;28;4651;-68
2023/06/29 00:44:22;;;;;;;5.88;3.50;;;;;;;18.64;65.72;99516.34;335613;28;18328;-67
2023/06/29 00:44:34;;;;;;;6.32;3.40;;;;;;;18.61;66.35;99521.81;337834;28;5290;-68
2023/06/29 00:44:47;;;;;;;5.30;3.30;;;;;;;18.60;66.11;99514.88;336017;28;5149;-68
2023/06/29 00:44:59;;;;;;;5.13;3.33;;;;;;;18.60;66.18;99517.50;337859;28;5448;-69
2023/06/29 00:45:11;;;;;;;5.63;3.40;;;;;;;18.60;65.45;99520.13;335722;28;18169;-68
2023/06/29 00:45:23;;;;;;;4.40;3.25;;;;;;;18.60;65.16;99514.88;338967;28;5628;-68
2023/06/29 00:45:35;;;;;;;4.03;3.10;;;;;;;18.61;65.05;99515.69;337796;28;5414;-68
2023/06/29 00:45:47;;;;;;;4.47;3.25;;;;;;;18.61;65.04;99515.69;335843;28;18225;-69
2023/06/29 00:45:59;;;;;;;4.50;3.10;;;;;;;18.61;65.03;99521.81;338523;28;4596;-68
2023/06/29 00:46:14;;;;;;;3.92;3.25;;;;;;;18.61;64.84;99516.53;335752;28;18178;-68
2023/06/29 00:46:26;;;;;;;4.07;3.25;;;;;;;18.62;64.97;99518.22;335427;28;18964;-68
2023/06/29 00:46:38;;;;;;;4.18;3.17;;;;;;;18.62;64.70;99518.22;338503;28;5211;-68
2023/06/29 00:46:52;;;;;;;3.97;3.22;;;;;;;18.64;64.99;99516.34;338929;28;5432;-68
2023/06/29 00:47:04;;;;;;;4.50;3.25;;;;;;;18.64;64.99;99516.34;335629;28;18487;-68
2023/06/29 00:47:16;;;;;;;6.03;3.30;;;;;;;18.66;65.00;99514.44;334892;28;18123;-68
2023/06/29 00:47:30;;;;;;;5.40;3.20;;;;;;;18.67;64.88;99518.78;338344;28;4548;-68
2023/06/29 00:47:42;;;;;;;4.95;3.20;;;;;;;18.67;64.76;99515.28;334111;28;18210;-68
2023/06/29 00:47:54;;;;;;;3.60;3.20;;;;;;;18.65;64.89;99515.41;337259;28;4554;-67
2023/06/29 00:48:07;;;;;;;3.83;3.28;;;;;;;18.67;64.93;99515.28;333371;28;16576;-69
2023/06/29 00:48:19;;;;;;;4.07;3.38;;;;;;;18.65;64.93;99510.16;338135;28;4662;-68
2023/06/29 00:48:31;;;;;;;3.92;3.35;;;;;;;18.65;64.94;99512.78;335238;28;16482;-68
2023/06/29 00:48:43;;;;;;;3.42;3.10;;;;;;;18.66;64.83;99519.72;338475;28;4636;-68
2023/06/29 00:48:55;;;;;;;3.30;3.00;;;;;;;18.67;64.91;99512.66;338682;28;5404;-69
2023/06/29 00:49:07;;;;;;;3.72;3.30;;;;;;;18.67;64.90;99515.28;335548;28;18200;-68
2023/06/29 00:49:20;;;;;;;3.65;3.22;;;;;;;18.66;64.88;99514.44;338103;28;6739;-68
2023/06/29 00:49:32;;;;;;;4.70;3.30;;;;;;;18.65;65.26;99512.78;335715;28;17859;-68
2023/06/29 00:49:44;;;;;;;4.20;3.30;;;;;;;18.63;65.33;99514.63;338217;28;5314;-68
2023/06/29 00:49:56;;;;;;;3.60;3.30;;;;;;;18.61;65.60;99516.53;335008;28;9173;-68
2023/06/29 00:50:09;;;;;;;3.72;3.20;;;;;;;18.60;65.67;99514.03;337846;28;5908;-68
2023/06/29 00:50:21;;;;;;;4.25;3.28;;;;;;;18.60;65.44;99514.88;334457;28;12523;-68
2023/06/29 00:50:34;;;;;;;4.70;3.10;;;;;;;18.60;65.63;99514.88;337040;28;4627;-68
2023/06/29 00:50:47;;;;;;;4.70;3.10;;;;;;;18.60;65.52;99514.88;335690;28;11714;-68
2023/06/29 00:50:59;;;;;;;4.28;3.17;;;;;;;18.60;65.47;99517.50;339098;28;4501;-68
2023/06/29 00:51:11;;;;;;;3.75;3.22;;;;;;;18.61;65.11;99511.28;335563;28;16361;-68
2023/06/29 00:51:23;;;;;;;3.50;3.10;;;;;;;18.62;65.34;99510.34;338522;28;4669;-68
2023/06/29 00:51:35;;;;;;;3.58;3.20;;;;;;;18.57;65.88;99515.06;337529;28;4554;-68
2023/06/29 00:51:50;;;;;;;3.78;3.30;;;;;;;18.58;65.92;99510.66;335706;28;17930;-68
2023/06/29 00:52:02;;;;;;;4.28;3.38;;;;;;;18.59;65.63;99510.53;336323;28;17604;-68
2023/06/29 00:52:14;;;;;;;4.70;3.40;;;;;;;18.57;65.81;99515.06;338510;28;5217;-68
2023/06/29 00:52:27;;;;;;;3.88;3.25;;;;;;;18.55;66.18;99515.19;335362;28;16162;-68
2023/06/29 00:52:40;;;;;;;3.63;3.00;;;;;;;18.54;65.86;99515.28;337816;28;4568;-68
2023/06/29 00:52:52;;;;;;;3.60;3.00;;;;;;;18.53;66.43;99514.44;336033;28;17965;-68
2023/06/29 00:53:06;;;;;;;4.40;3.10;;;;;;;18.52;66.34;99517.19;337696;28;4655;-68
2023/06/29 00:53:18;;;;;;;3.75;2.95;;;;;;;18.54;66.15;99507.38;335917;28;17952;-68
2023/06/29 00:53:31;;;;;;;4.53;2.95;;;;;;;18.53;66.00;99508.31;338720;28;4721;-68
2023/06/29 00:53:43;;;;;;;4.80;3.30;;;;;;;18.54;65.82;99505.59;335610;28;18146;-68
2023/06/29 00:53:55;;;;;;;4.53;3.47;;;;;;;18.54;65.91;99504.75;338985;28;5774;-68
2023/06/29 00:54:08;;;;;;;6.47;3.65;;;;;;;18.54;65.92;99505.59;336034;28;18410;-68
2023/06/29 00:54:21;;;;;;;7.05;3.65;;;;;;;18.54;65.70;99512.66;338481;28;4646;-68
2023/06/29 00:54:33;;;;;;;5.77;3.50;;;;;;;18.54;66.11;99507.38;334978;28;17960;-68
2023/06/29 00:54:45;;;;;;;4.05;3.30;;;;;;;18.53;66.17;99513.59;338445;28;4794;-68
2023/06/29 00:54:58;;;;;;;3.90;3.40;;;;;;;18.51;65.57;99510.22;335703;28;18125;-68
2023/06/29 00:55:10;;;;;;;3.95;3.40;;;;;;;18.50;66.00;99508.53;338490;28;4750;-68
2023/06/29 00:55:22;;;;;;;3.97;3.30;;;;;;;18.51;65.77;99510.22;333952;28;17085;-68
2023/06/29 00:55:35;;;;;;;4.50;3.20;;;;;;;18.53;65.45;99513.59;337489;28;5346;-68
2023/06/29 00:55:48;;;;;;;4.55;3.13;;;;;;;18.53;65.17;99503.91;336073;28;17984;-68
2023/06/29 00:56:01;;;;;;;6.28;3.20;;;;;;;18.56;64.94;99508.97;337832;28;5185;-68
2023/06/29 00:56:13;;;;;;;7.00;3.30;;;;;;;18.57;64.99;99509.78;334535;28;17893;-67
2023/06/29 00:56:26;;;;;;;7.55;3.40;;;;;;;18.59;64.64;99513.16;337252;28;4580;-68
2023/06/29 00:56:39;;;;;;;6.53;3.38;;;;;;;18.59;64.40;99515.78;334567;28;18478;-68
2023/06/29 00:56:52;;;;;;;5.57;3.33;;;;;;;18.61;64.48;99510.44;334733;28;13065;-68
2023/06/29 00:57:04;;;;;;;3.50;3.20;;;;;;;18.58;64.93;99506.22;336664;28;4558;-68
2023/06/29 00:57:16;;;;;;;3.70;2.92;;;;;;;18.58;64.89;99500.97;336016;28;16639;-68
2023/06/29 00:57:29;;;;;;;4.32;2.95;;;;;;;18.59;64.76;99513.16;337718;28;5283;-68
2023/06/29 00:57:41;;;;;;;4.32;3.13;;;;;;;18.60;64.71;99506.97;336079;28;15744;-68
2023/06/29 00:57:53;;;;;;;4.30;3.15;;;;;;;18.61;64.66;99511.28;338907;28;4582;-68
2023/06/29 00:58:05;;;;;;;4.60;3.20;;;;;;;18.62;64.81;99510.34;337912;28;4660;-69
2023/06/29 00:58:17;;;;;;;3.83;3.00;;;;;;;18.63;64.62;99509.38;335255;28;18072;-68
2023/06/29 00:58:30;;;;;;;3.65;3.00;;;;;;;18.60;64.94;99509.59;338305;28;4500;-68
2023/06/29 00:58:43;;;;;;;3.67;3.13;;;;;;;18.59;64.89;99507.91;335247;28;18358;-68
2023/06/29 00:58:55;;;;;;;4.63;3.30;;;;;;;18.58;65.24;99506.22;338508;28;5188;-67
2023/06/29 00:59:07;;;;;;;4.30;3.22;;;;;;;18.57;65.47;99509.78;335055;28;15097;-68
2023/06/29 00:59:19;;;;;;;6.53;3.20;;;;;;;18.57;65.49;99509.78;338387;28;4607;-68
2023/06/29 00:59:31;;;;;;;6.60;3.17;;;;;;;18.55;65.59;99507.28;335770;28;16197;-69
2023/06/29 00:59:43;;;;;;;7.35;3.30;;;;;;;18.55;65.45;99506.41;338162;28;4718;-68